Time;durP1;ratioP1;P1;durP2;ratioP2;P2;SDS_P1;SDS_P2;PMS_P1;PMS_P2;Temp;Humidity;BMP_temperature;BMP_pressure;BME280_temperature;BME280_humidity;BME280_pressure;Samples;Min_cycle;Max_cycle;Signal;HPM_P1;HPM_P2
2021/10/21 04:31:43;;;;;;;0.90;0.80;;;14.40;99.90;;;;;;5484356;23;21039;-78
2021/10/21 04:34:09;;;;;;;2.70;1.17;;;14.40;99.90;;;;;;4945850;29;20503;-77
2021/10/21 04:36:35;;;;;;;1.20;1.10;;;14.30;99.90;;;;;;4953856;28;20596;-74
2021/10/21 04:39:00;;;;;;;1.37;0.80;;;14.30;99.90;;;;;;4953860;28;20188;-77
2021/10/21 04:41:26;;;;;;;1.20;0.70;;;14.20;99.90;;;;;;4953648;28;20680;-78
2021/10/21 04:43:51;;;;;;;0.90;0.90;;;14.20;99.90;;;;;;4953760;28;20838;-77
2021/10/21 04:46:17;;;;;;;1.20;0.77;;;14.10;99.90;;;;;;4953331;29;20196;-77
2021/10/21 04:48:42;;;;;;;3.20;0.90;;;14.10;99.90;;;;;;4953360;28;20184;-78
2021/10/21 04:51:08;;;;;;;2.20;0.60;;;14.00;99.90;;;;;;4953483;28;20752;-77
2021/10/21 04:53:33;;;;;;;0.60;0.50;;;13.90;99.90;;;;;;4953748;29;20205;-77
2021/10/21 04:55:59;;;;;;;2.70;0.90;;;13.80;99.90;;;;;;4953372;29;20264;-77
2021/10/21 04:58:24;;;;;;;1.50;0.60;;;13.80;99.90;;;;;;4953678;29;20697;-77
2021/10/21 05:00:50;;;;;;;1.10;0.83;;;13.70;99.90;;;;;;4954317;28;20283;-77
2021/10/21 05:03:16;;;;;;;8.63;0.80;;;13.50;99.90;;;;;;4954472;29;20212;-77
2021/10/21 05:05:43;;;;;;;3.90;0.60;;;13.40;99.90;;;;;;4952977;29;20518;-78
2021/10/21 05:08:09;;;;;;;1.53;0.63;;;13.40;99.90;;;;;;4953761;28;20177;-77
2021/10/21 05:10:34;;;;;;;4.03;0.73;;;13.30;99.90;;;;;;4953198;28;20444;-77
2021/10/21 05:13:00;;;;;;;4.07;0.80;;;13.30;99.90;;;;;;4953443;29;20212;-77
2021/10/21 05:15:26;;;;;;;2.50;0.57;;;13.20;99.90;;;;;;4953240;29;20172;-77
2021/10/21 05:17:52;;;;;;;7.30;0.60;;;13.20;99.90;;;;;;4953955;28;20176;-77
2021/10/21 05:20:18;;;;;;;2.83;0.73;;;13.10;99.90;;;;;;4953607;28;20968;-77
2021/10/21 05:22:43;;;;;;;3.67;0.70;;;13.00;99.90;;;;;;4953106;28;20254;-77
2021/10/21 05:25:09;;;;;;;2.00;0.57;;;13.00;99.90;;;;;;4953280;29;20180;-76
2021/10/21 05:27:36;;;;;;;8.43;0.93;;;13.00;99.90;;;;;;4953086;29;20709;-77
2021/10/21 05:30:03;;;;;;;3.07;0.60;;;13.00;99.90;;;;;;4953415;28;20201;-77
2021/10/21 05:32:29;;;;;;;3.53;0.90;;;13.00;99.90;;;;;;4952723;28;20456;-77
2021/10/21 05:34:55;;;;;;;7.83;0.93;;;13.10;99.90;;;;;;4953119;29;20415;-77
2021/10/21 05:37:20;;;;;;;5.00;0.63;;;13.00;99.90;;;;;;4953217;29;20240;-77
2021/10/21 05:39:46;;;;;;;1.47;0.77;;;13.00;99.90;;;;;;4953315;29;20228;-78
2021/10/21 05:42:12;;;;;;;2.87;0.60;;;13.00;99.90;;;;;;4953052;28;20200;-78
2021/10/21 05:44:38;;;;;;;4.73;1.13;;;13.00;99.90;;;;;;4952912;29;20458;-76
2021/10/21 05:47:04;;;;;;;2.70;0.70;;;13.00;99.90;;;;;;4953257;28;20507;-76
2021/10/21 05:49:30;;;;;;;4.00;0.70;;;13.00;99.90;;;;;;4953090;28;20650;-76
2021/10/21 05:51:55;;;;;;;6.13;1.00;;;13.00;99.90;;;;;;4951925;28;20235;-76
2021/10/21 05:54:21;;;;;;;4.80;0.70;;;13.00;99.90;;;;;;4952733;29;20279;-76
2021/10/21 05:56:46;;;;;;;4.30;0.90;;;12.90;99.90;;;;;;4953161;29;20724;-77
2021/10/21 05:59:12;;;;;;;8.43;0.80;;;12.80;99.90;;;;;;4953121;28;20181;-76
2021/10/21 06:01:37;;;;;;;3.43;0.83;;;12.80;99.90;;;;;;4956293;28;20212;-77
2021/10/21 06:04:03;;;;;;;5.13;0.80;;;12.80;99.90;;;;;;4956806;29;20180;-77
2021/10/21 06:06:32;;;;;;;7.43;0.80;;;12.70;99.90;;;;;;4956536;29;20189;-76
2021/10/21 06:08:58;;;;;;;4.93;1.10;;;12.70;99.90;;;;;;4957085;28;20231;-76
2021/10/21 06:11:23;;;;;;;6.13;0.83;;;12.80;99.90;;;;;;4956694;28;20520;-76
2021/10/21 06:13:49;;;;;;;5.37;1.10;;;12.90;99.90;;;;;;4956571;29;20645;-76
2021/10/21 06:16:14;;;;;;;6.47;1.10;;;12.80;99.90;;;;;;4956575;29;20556;-75
2021/10/21 06:18:40;;;;;;;3.33;0.97;;;12.90;99.90;;;;;;4956466;29;20746;-76
2021/10/21 06:21:06;;;;;;;10.53;1.30;;;12.90;99.90;;;;;;4956766;28;20201;-77
2021/10/21 06:23:33;;;;;;;10.73;1.10;;;13.00;99.90;;;;;;4956434;28;20191;-77
2021/10/21 06:25:58;;;;;;;7.63;1.10;;;13.00;99.90;;;;;;4956487;28;20571;-77
2021/10/21 06:28:24;;;;;;;4.23;0.87;;;13.00;99.90;;;;;;4956422;29;20515;-76
2021/10/21 06:30:49;;;;;;;4.27;1.37;;;13.00;99.90;;;;;;4957272;28;20278;-77
2021/10/21 06:33:15;;;;;;;3.20;1.10;;;13.00;99.90;;;;;;4956574;28;20789;-77
2021/10/21 06:35:42;;;;;;;4.50;0.90;;;13.00;99.90;;;;;;4956284;28;20263;-77
2021/10/21 06:38:08;;;;;;;5.43;1.10;;;13.00;99.90;;;;;;4956657;28;20185;-76
2021/10/21 06:40:34;;;;;;;2.77;0.93;;;13.10;99.90;;;;;;4956328;28;20501;-76
2021/10/21 06:42:59;;;;;;;3.43;0.70;;;13.10;99.90;;;;;;4956373;28;20173;-78
2021/10/21 06:45:25;;;;;;;0.90;0.60;;;13.20;99.90;;;;;;4956128;29;20185;-76
2021/10/21 06:47:51;;;;;;;2.57;0.80;;;13.20;99.90;;;;;;4956354;29;20193;-77
2021/10/21 06:50:17;;;;;;;6.03;0.73;;;13.30;99.90;;;;;;4956278;29;20830;-76
2021/10/21 06:52:44;;;;;;;5.03;0.70;;;13.30;99.90;;;;;;4955848;28;20490;-76
2021/10/21 06:55:11;;;;;;;4.20;0.70;;;13.30;99.90;;;;;;4956187;28;20173;-77
2021/10/21 06:57:57;;;;;;;4.43;1.63;;;13.30;99.90;;;;;;4954767;29;20790;-77
2021/10/21 07:00:23;;;;;;;5.03;1.20;;;13.50;99.90;;;;;;4955797;29;20428;-76
2021/10/21 07:02:49;;;;;;;4.80;1.23;;;14.30;99.90;;;;;;4955840;28;20944;-77
2021/10/21 07:05:18;;;;;;;5.20;1.00;;;15.10;99.90;;;;;;4956043;29;20972;-77
2021/10/21 07:07:44;;;;;;;13.67;0.70;;;16.00;99.90;;;;;;4955673;29;20188;-76
2021/10/21 07:10:10;;;;;;;6.80;0.70;;;16.60;99.90;;;;;;4955816;28;20508;-77
2021/10/21 07:12:37;;;;;;;5.97;0.60;;;16.90;99.90;;;;;;4955088;28;20476;-76
2021/10/21 07:15:04;;;;;;;3.10;0.60;;;16.70;99.90;;;;;;4955773;29;20898;-76
2021/10/21 07:17:30;;;;;;;4.10;0.73;;;17.10;99.90;;;;;;4955490;29;20906;-78
2021/10/21 07:19:55;;;;;;;2.50;0.40;;;17.10;99.90;;;;;;4956851;29;20497;-79
2021/10/21 07:22:21;;;;;;;4.67;0.93;;;17.80;99.90;;;;;;4956748;28;20441;-78
2021/10/21 07:24:47;;;;;;;1.00;0.50;;;18.50;99.90;;;;;;4956532;28;20173;-78
2021/10/21 07:27:12;;;;;;;3.50;0.50;;;18.70;99.90;;;;;;4955820;28;20213;-78
2021/10/21 07:29:38;;;;;;;1.07;0.60;;;19.10;99.90;;;;;;4952154;29;20192;-76
2021/10/21 07:32:04;;;;;;;6.20;1.07;;;19.00;99.90;;;;;;4954705;28;20220;-76
2021/10/21 07:34:30;;;;;;;1.17;0.50;;;18.50;99.90;;;;;;4954796;28;20209;-76
2021/10/21 07:36:58;;;;;;;2.60;0.77;;;18.10;99.90;;;;;;4955259;29;20909;-76
2021/10/21 07:39:24;;;;;;;2.77;0.50;;;17.50;99.90;;;;;;4954827;28;20658;-76
2021/10/21 07:41:50;;;;;;;1.37;0.90;;;16.90;99.90;;;;;;4955155;28;20439;-76
2021/10/21 07:44:16;;;;;;;1.17;0.57;;;16.10;99.90;;;;;;4954890;29;20420;-76
2021/10/21 07:46:45;;;;;;;3.80;0.50;;;15.80;99.90;;;;;;4955028;29;20428;-76
2021/10/21 07:49:11;;;;;;;3.80;0.40;;;15.60;99.90;;;;;;4954568;28;20207;-76
2021/10/21 07:51:38;;;;;;;0.70;0.50;;;15.50;99.90;;;;;;4954866;28;20775;-76
2021/10/21 07:54:04;;;;;;;1.03;0.50;;;15.40;99.90;;;;;;4951838;29;20217;-76
2021/10/21 07:56:29;;;;;;;4.77;0.90;;;15.20;99.90;;;;;;4954789;29;20479;-75
2021/10/21 07:58:55;;;;;;;1.77;0.50;;;15.00;99.90;;;;;;4954900;29;20634;-75
2021/10/21 08:01:21;;;;;;;2.80;0.47;;;15.10;99.90;;;;;;4954699;28;20255;-76
2021/10/21 08:03:46;;;;;;;2.60;0.50;;;15.30;99.90;;;;;;4953579;29;20194;-76
2021/10/21 08:06:12;;;;;;;2.00;0.50;;;15.50;99.90;;;;;;4954640;29;20216;-76
2021/10/21 08:08:38;;;;;;;1.43;0.40;;;15.50;99.90;;;;;;4954445;29;20176;-76
2021/10/21 08:11:03;;;;;;;0.60;0.40;;;15.60;99.90;;;;;;4954532;28;20440;-76
2021/10/21 08:13:29;;;;;;;1.73;0.50;;;15.70;99.90;;;;;;4954450;29;20264;-76
2021/10/21 08:15:56;;;;;;;1.23;0.40;;;15.60;99.90;;;;;;4954439;28;20201;-76
2021/10/21 08:18:23;;;;;;;3.23;1.70;;;15.70;99.90;;;;;;4954576;29;20420;-75
2021/10/21 08:20:50;;;;;;;1.40;0.87;;;15.60;99.90;;;;;;4954259;28;20510;-75
2021/10/21 08:23:15;;;;;;;3.13;0.70;;;15.40;99.90;;;;;;4953873;28;20487;-76
2021/10/21 08:25:41;;;;;;;4.00;0.50;;;15.50;99.90;;;;;;4954296;29;20428;-76
2021/10/21 08:28:08;;;;;;;4.67;0.67;;;15.70;99.90;;;;;;4954303;29;20428;-76
2021/10/21 08:30:37;;;;;;;5.23;0.40;;;15.80;99.90;;;;;;4954242;28;20187;-75
2021/10/21 08:33:03;;;;;;;1.67;0.63;;;15.70;99.90;;;;;;4954304;28;20474;-75
2021/10/21 08:35:29;;;;;;;0.87;0.50;;;15.70;99.90;;;;;;4954102;29;20416;-76
2021/10/21 08:37:58;;;;;;;2.60;0.60;;;15.60;99.90;;;;;;4952412;29;20424;-76
2021/10/21 08:40:23;;;;;;;3.27;0.60;;;15.40;99.90;;;;;;4953053;29;20487;-76
2021/10/21 08:42:49;;;;;;;4.50;0.50;;;15.70;99.90;;;;;;4954083;28;20444;-76
2021/10/21 08:45:15;;;;;;;3.70;0.50;;;16.20;99.90;;;;;;4954116;29;20187;-76
2021/10/21 08:47:46;;;;;;;1.17;0.50;;;16.40;99.90;;;;;;4953972;29;20183;-76
2021/10/21 08:50:14;;;;;;;1.43;0.40;;;16.00;99.90;;;;;;4954119;29;20267;-76
2021/10/21 08:52:41;;;;;;;4.77;1.77;;;15.30;99.90;;;;;;4952421;28;20482;-75
2021/10/21 08:55:07;;;;;;;4.60;0.40;;;14.80;99.90;;;;;;4953926;29;20416;-76
2021/10/21 08:57:33;;;;;;;1.63;0.40;;;14.50;99.90;;;;;;4952680;29;20955;-75
2021/10/21 08:59:59;;;;;;;3.07;0.50;;;14.50;99.90;;;;;;4953921;29;20667;-75
2021/10/21 09:02:35;;;;;;;0.70;0.40;;;14.70;99.90;;;;;;4953670;28;20450;-76
2021/10/21 09:05:33;;;;;;;1.13;0.40;;;15.00;99.90;;;;;;4953779;29;20180;-75
2021/10/21 09:08:08;;;;;;;1.77;0.60;;;15.20;99.90;;;;;;4953922;28;20413;-75
2021/10/21 09:10:45;;;;;;;0.73;0.60;;;15.00;99.90;;;;;;4953702;28;20503;-75
2021/10/21 09:13:30;;;;;;;5.13;0.60;;;15.10;99.90;;;;;;4953671;29;20467;-75
2021/10/21 09:15:58;;;;;;;1.00;0.40;;;15.30;99.90;;;;;;4953757;28;20849;-75
2021/10/21 09:18:26;;;;;;;0.90;0.40;;;15.30;99.90;;;;;;4953641;29;20420;-76
2021/10/21 09:20:52;;;;;;;0.63;0.40;;;15.40;99.90;;;;;;4953654;28;20531;-75
2021/10/21 09:23:26;;;;;;;0.60;0.40;;;15.30;99.90;;;;;;4953685;29;20424;-75
2021/10/21 09:25:52;;;;;;;4.23;0.40;;;15.40;99.90;;;;;;4953661;29;20471;-75
2021/10/21 09:28:25;;;;;;;1.70;0.40;;;15.60;99.90;;;;;;4953410;29;20451;-77
2021/10/21 09:31:03;;;;;;;1.23;0.37;;;16.00;99.90;;;;;;4953387;28;20607;-75
2021/10/21 09:33:46;;;;;;;0.40;0.30;;;15.80;99.90;;;;;;4952837;28;20546;-76
2021/10/21 09:36:16;;;;;;;1.83;0.33;;;16.10;99.90;;;;;;4957295;28;20416;-76
2021/10/21 09:38:51;;;;;;;1.00;0.43;;;16.30;99.90;;;;;;4957232;29;20495;-76
2021/10/21 09:41:18;;;;;;;0.40;0.30;;;16.50;99.90;;;;;;4957134;28;20431;-76
2021/10/21 09:43:45;;;;;;;3.63;0.60;;;16.60;99.90;;;;;;4957138;29;20511;-76
2021/10/21 09:46:31;;;;;;;1.17;0.40;;;16.90;99.90;;;;;;4957020;28;20416;-76
2021/10/21 09:49:28;;;;;;;1.03;0.30;;;16.90;99.90;;;;;;4957280;29;20404;-75
2021/10/21 09:51:54;;;;;;;0.50;0.40;;;16.70;99.90;;;;;;4956920;28;20477;-75
2021/10/21 09:54:20;;;;;;;0.50;0.40;;;16.70;99.90;;;;;;4957096;29;20820;-76
2021/10/21 09:57:05;;;;;;;0.50;0.40;;;16.70;99.90;;;;;;4957088;29;20445;-76
2021/10/21 09:59:31;;;;;;;0.80;0.40;;;16.90;99.90;;;;;;4957458;29;20534;-76
2021/10/21 10:02:15;;;;;;;1.57;0.40;;;17.10;99.90;;;;;;4957127;28;20435;-76
2021/10/21 10:04:46;;;;;;;3.87;0.60;;;16.90;99.90;;;;;;4955819;29;20555;-76
2021/10/21 10:07:12;;;;;;;2.20;0.50;;;17.00;99.90;;;;;;4956816;29;20529;-75
2021/10/21 10:09:38;;;;;;;1.47;0.40;;;17.00;99.90;;;;;;4956740;29;20416;-76
2021/10/21 10:12:05;;;;;;;6.83;0.50;;;16.90;99.90;;;;;;4956732;28;20476;-76
2021/10/21 10:14:35;;;;;;;1.27;0.40;;;16.70;99.90;;;;;;4956676;28;20205;-76
2021/10/21 10:17:01;;;;;;;1.47;0.50;;;16.70;99.90;;;;;;4956733;29;20975;-76
2021/10/21 10:19:29;;;;;;;0.50;0.47;;;16.70;99.90;;;;;;4956519;29;20495;-74
2021/10/21 10:21:57;;;;;;;1.70;0.50;;;16.60;99.90;;;;;;4956623;28;20431;-75
2021/10/21 10:24:32;;;;;;;0.60;0.50;;;16.60;99.90;;;;;;4956399;29;20432;-76
2021/10/21 10:27:00;;;;;;;7.70;0.90;;;16.70;99.90;;;;;;4956515;29;20416;-76
2021/10/21 10:29:32;;;;;;;2.40;0.50;;;16.90;99.90;;;;;;4956376;29;20471;-75
2021/10/21 10:32:03;;;;;;;2.33;0.53;;;16.90;99.90;;;;;;4956224;28;20969;-75
2021/10/21 10:34:35;;;;;;;0.93;0.40;;;17.10;99.90;;;;;;4956153;29;20464;-75
2021/10/21 10:37:12;;;;;;;3.50;0.90;;;17.20;99.90;;;;;;4956495;28;20408;-75
2021/10/21 10:39:48;;;;;;;1.20;0.50;;;17.30;99.90;;;;;;4956019;29;20420;-76
2021/10/21 10:42:33;;;;;;;0.63;0.60;;;17.10;99.90;;;;;;4956165;28;20510;-76
2021/10/21 10:45:16;;;;;;;1.60;0.57;;;16.90;99.90;;;;;;4955805;28;20499;-76
2021/10/21 10:47:46;;;;;;;1.43;0.50;;;16.90;99.90;;;;;;4955947;29;20520;-76
2021/10/21 10:50:36;;;;;;;2.30;0.50;;;16.90;99.90;;;;;;4956073;29;20918;-75
2021/10/21 10:53:07;;;;;;;2.40;0.50;;;17.00;99.90;;;;;;4952551;29;20472;-75
2021/10/21 10:55:36;;;;;;;2.80;0.80;;;17.30;99.90;;;;;;4956128;28;20932;-76
2021/10/21 10:58:03;;;;;;;2.70;0.60;;;17.40;99.90;;;;;;4956213;29;20408;-76
2021/10/21 11:00:45;;;;;;;2.40;0.93;;;17.60;99.90;;;;;;4956065;28;20440;-75
2021/10/21 11:03:11;;;;;;;0.73;0.60;;;17.60;99.90;;;;;;4956007;28;20420;-76
2021/10/21 11:05:43;;;;;;;1.27;0.50;;;17.80;99.90;;;;;;4955600;29;20416;-76
2021/10/21 11:08:10;;;;;;;3.00;0.80;;;17.40;99.90;;;;;;4955940;28;20413;-75
2021/10/21 11:10:38;;;;;;;1.23;0.60;;;17.10;99.90;;;;;;4955517;28;20488;-75
2021/10/21 11:13:26;;;;;;;3.03;0.77;;;17.00;99.90;;;;;;4954511;29;20463;-75
2021/10/21 11:15:52;;;;;;;3.33;0.60;;;16.80;99.90;;;;;;4953099;29;20400;-77
2021/10/21 11:18:23;;;;;;;1.20;0.60;;;16.90;99.90;;;;;;4955042;28;20539;-77
2021/10/21 11:20:49;;;;;;;4.20;0.77;;;16.90;99.90;;;;;;4954945;28;21566;-77
2021/10/21 11:23:40;;;;;;;1.27;0.60;;;17.10;99.90;;;;;;4955209;28;20543;-77
2021/10/21 11:26:06;;;;;;;3.90;0.97;;;17.00;99.90;;;;;;4951441;28;20583;-77
2021/10/21 11:28:34;;;;;;;2.73;0.60;;;17.20;99.90;;;;;;4943037;29;20511;-76
2021/10/21 11:31:01;;;;;;;1.23;0.70;;;17.20;99.90;;;;;;4954498;28;20235;-75
2021/10/21 11:33:27;;;;;;;3.63;0.60;;;17.20;99.90;;;;;;4954647;28;20476;-76
2021/10/21 11:35:59;;;;;;;1.73;0.50;;;17.30;99.90;;;;;;4953692;29;20480;-76
2021/10/21 11:38:24;;;;;;;1.77;0.50;;;17.30;99.90;;;;;;4954322;28;20220;-75
2021/10/21 11:40:53;;;;;;;2.20;0.60;;;17.40;99.90;;;;;;4954495;28;20836;-75
2021/10/21 11:43:41;;;;;;;2.50;0.70;;;17.50;99.90;;;;;;4954479;28;20212;-75
2021/10/21 11:46:11;;;;;;;5.00;0.80;;;17.60;99.90;;;;;;4954721;28;20813;-76
2021/10/21 11:48:39;;;;;;;0.93;0.60;;;17.50;99.90;;;;;;4953128;29;21024;-76
2021/10/21 11:51:10;;;;;;;2.00;0.63;;;17.20;99.90;;;;;;4954201;28;20558;-76
2021/10/21 11:53:38;;;;;;;1.27;0.50;;;17.00;99.90;;;;;;4954318;29;20662;-76
2021/10/21 11:56:04;;;;;;;1.17;0.73;;;17.00;99.90;;;;;;4954253;28;20492;-75
2021/10/21 11:58:34;;;;;;;0.60;0.50;;;17.20;99.90;;;;;;4954340;28;20455;-75
2021/10/21 12:01:08;;;;;;;0.97;0.50;;;17.20;99.90;;;;;;4942356;28;20984;-74
2021/10/21 12:03:33;;;;;;;1.73;0.50;;;17.20;99.90;;;;;;4954069;28;20979;-76
2021/10/21 12:06:00;;;;;;;3.57;0.53;;;17.40;99.90;;;;;;4953099;28;20475;-76
2021/10/21 12:08:25;;;;;;;1.27;0.50;;;17.30;99.90;;;;;;4954164;29;20267;-76
2021/10/21 12:11:00;;;;;;;3.83;0.90;;;17.10;99.90;;;;;;4953948;28;20475;-77
2021/10/21 12:13:33;;;;;;;1.50;0.50;;;17.10;99.90;;;;;;4953812;28;20210;-76
2021/10/21 12:16:02;;;;;;;0.80;0.73;;;16.90;99.90;;;;;;4953653;28;20475;-75
2021/10/21 12:18:32;;;;;;;3.00;0.60;;;16.90;99.90;;;;;;4953855;28;20558;-76
2021/10/21 12:21:01;;;;;;;2.53;0.70;;;16.80;99.90;;;;;;4957995;28;20467;-76
2021/10/21 12:23:32;;;;;;;2.83;0.50;;;16.60;99.90;;;;;;4954084;29;20456;-76
2021/10/21 12:26:01;;;;;;;2.00;0.60;;;16.20;99.90;;;;;;4953351;28;20474;-76
2021/10/21 12:28:36;;;;;;;2.20;0.67;;;16.00;99.90;;;;;;4953387;29;20452;-76
2021/10/21 12:31:18;;;;;;;1.97;0.60;;;15.80;99.90;;;;;;4953451;28;20896;-75
2021/10/21 12:34:02;;;;;;;5.70;0.67;;;15.80;99.90;;;;;;4953374;29;20490;-75
2021/10/21 12:36:42;;;;;;;2.97;0.80;;;15.90;99.90;;;;;;4952901;28;20526;-76
2021/10/21 12:39:10;;;;;;;3.43;0.73;;;15.80;99.90;;;;;;4953330;28;20448;-76
2021/10/21 12:42:00;;;;;;;2.60;1.37;;;15.70;99.90;;;;;;4954086;28;20471;-76
2021/10/21 12:44:34;;;;;;;2.77;0.60;;;15.50;99.90;;;;;;4951958;29;20462;-76
2021/10/21 12:47:11;;;;;;;2.40;0.70;;;15.60;99.90;;;;;;4952969;29;20408;-76
2021/10/21 12:49:37;;;;;;;1.00;0.57;;;15.70;99.90;;;;;;4952648;29;20483;-76
2021/10/21 12:52:08;;;;;;;1.40;0.50;;;15.90;99.90;;;;;;4953708;28;20436;-75
2021/10/21 12:54:36;;;;;;;1.33;0.60;;;16.00;99.90;;;;;;4953489;29;20527;-76
2021/10/21 12:57:02;;;;;;;1.23;0.87;;;16.10;99.90;;;;;;4953477;29;20416;-75
2021/10/21 12:59:34;;;;;;;3.00;0.50;;;16.10;99.90;;;;;;4952529;29;20412;-75
2021/10/21 13:02:01;;;;;;;1.30;0.70;;;16.10;99.90;;;;;;4953731;28;20433;-75
2021/10/21 13:04:37;;;;;;;1.53;0.70;;;16.10;99.90;;;;;;4953737;29;20420;-77
2021/10/21 13:07:03;;;;;;;2.30;0.60;;;16.10;99.90;;;;;;4953672;29;20420;-75
2021/10/21 13:09:32;;;;;;;1.43;0.50;;;15.90;99.90;;;;;;4953291;29;20412;-74
2021/10/21 13:11:59;;;;;;;3.13;0.63;;;15.70;99.90;;;;;;4953638;28;20304;-75
2021/10/21 13:14:29;;;;;;;0.70;0.47;;;15.60;99.90;;;;;;4953233;29;20468;-75
2021/10/21 13:16:55;;;;;;;1.73;0.50;;;15.60;99.90;;;;;;4953758;29;20417;-75
2021/10/21 13:19:21;;;;;;;1.67;0.67;;;15.80;99.90;;;;;;4953519;29;20416;-74
2021/10/21 13:21:47;;;;;;;5.23;0.90;;;15.80;99.90;;;;;;4953760;28;20191;-75
2021/10/21 13:24:12;;;;;;;1.23;0.70;;;15.90;99.90;;;;;;4953727;29;20424;-76
2021/10/21 13:26:40;;;;;;;2.70;0.50;;;15.90;99.90;;;;;;4953125;29;20228;-76
2021/10/21 13:29:06;;;;;;;0.83;0.67;;;15.90;99.90;;;;;;4951730;29;20196;-76
2021/10/21 13:31:32;;;;;;;0.70;0.50;;;15.80;99.90;;;;;;4953380;28;20515;-76
2021/10/21 13:33:58;;;;;;;2.53;0.50;;;15.50;99.90;;;;;;4953614;29;20204;-76
2021/10/21 13:36:28;;;;;;;1.07;0.60;;;15.40;99.90;;;;;;4953562;29;20447;-76
2021/10/21 13:38:55;;;;;;;3.57;0.60;;;15.20;99.90;;;;;;4953786;29;20425;-76
2021/10/21 13:41:22;;;;;;;2.30;0.60;;;15.20;99.90;;;;;;4953554;28;20973;-76
2021/10/21 13:43:47;;;;;;;1.67;0.60;;;15.10;99.90;;;;;;4953614;29;20453;-76
2021/10/21 13:46:13;;;;;;;0.80;0.60;;;15.00;99.90;;;;;;4953500;29;20416;-75
2021/10/21 13:48:39;;;;;;;1.47;0.50;;;14.90;99.90;;;;;;4953503;29;20427;-76
2021/10/21 13:51:04;;;;;;;2.77;0.60;;;15.00;99.90;;;;;;4952332;28;20702;-75
2021/10/21 13:53:30;;;;;;;4.60;0.60;;;15.00;99.90;;;;;;4953246;29;20208;-76
2021/10/21 13:55:55;;;;;;;0.97;0.60;;;15.10;99.90;;;;;;4952199;29;20180;-75
2021/10/21 13:58:21;;;;;;;0.90;0.57;;;15.30;99.90;;;;;;4953382;29;20661;-75
2021/10/21 14:00:46;;;;;;;1.00;0.57;;;15.30;99.90;;;;;;4951986;28;20184;-76
2021/10/21 14:03:12;;;;;;;2.50;0.60;;;15.30;99.90;;;;;;4953447;29;20177;-76
2021/10/21 14:05:38;;;;;;;2.20;0.73;;;15.40;99.90;;;;;;4953169;29;20539;-76
2021/10/21 14:08:08;;;;;;;0.70;0.50;;;15.40;99.90;;;;;;4951715;29;20320;-76
2021/10/21 14:10:35;;;;;;;2.43;0.50;;;15.40;99.90;;;;;;4953131;29;20781;-75
2021/10/21 14:13:01;;;;;;;4.90;0.67;;;15.40;99.90;;;;;;4950323;29;20495;-75
2021/10/21 14:15:26;;;;;;;1.50;0.47;;;15.30;99.90;;;;;;4943469;29;20421;-76
2021/10/21 14:17:53;;;;;;;1.20;0.50;;;15.20;99.90;;;;;;4943686;29;20181;-77
2021/10/21 14:20:18;;;;;;;2.03;0.57;;;15.10;99.90;;;;;;4943253;28;20204;-75
2021/10/21 14:22:44;;;;;;;4.23;0.80;;;15.10;99.90;;;;;;4956388;29;20953;-75
2021/10/21 14:25:10;;;;;;;2.07;0.57;;;15.00;99.90;;;;;;4956563;29;20662;-76
2021/10/21 14:27:37;;;;;;;1.10;0.60;;;15.00;99.90;;;;;;4956571;29;20180;-76
2021/10/21 14:30:05;;;;;;;0.73;0.57;;;15.00;99.90;;;;;;4956708;29;20423;-76
2021/10/21 14:32:31;;;;;;;4.87;0.70;;;15.00;99.90;;;;;;4956038;29;20465;-75
2021/10/21 14:34:57;;;;;;;1.20;0.70;;;14.90;99.90;;;;;;4956772;29;20914;-76
2021/10/21 14:37:26;;;;;;;1.57;0.87;;;14.90;99.90;;;;;;4956291;29;20255;-75
2021/10/21 14:39:52;;;;;;;1.43;0.70;;;14.80;99.90;;;;;;4955935;29;20177;-75
2021/10/21 14:42:18;;;;;;;2.30;0.60;;;14.70;99.90;;;;;;4956367;29;20934;-75
2021/10/21 14:44:43;;;;;;;1.77;0.60;;;14.70;99.90;;;;;;4956334;29;20191;-76
2021/10/21 14:47:09;;;;;;;1.17;0.50;;;14.70;99.90;;;;;;4956503;29;20533;-75
2021/10/21 14:49:35;;;;;;;0.80;0.50;;;14.70;99.90;;;;;;4956278;29;20264;-75
2021/10/21 14:52:01;;;;;;;2.10;0.80;;;14.60;99.90;;;;;;4955611;29;20217;-76
2021/10/21 14:54:26;;;;;;;1.83;0.60;;;14.50;99.90;;;;;;4952607;29;20258;-75
2021/10/21 14:56:55;;;;;;;4.97;0.90;;;14.50;99.90;;;;;;4954223;29;20426;-76
2021/10/21 14:59:23;;;;;;;2.10;0.50;;;14.30;99.90;;;;;;4954565;28;20536;-76
2021/10/21 15:01:48;;;;;;;2.30;0.50;;;14.30;99.90;;;;;;4954714;28;20444;-75
2021/10/21 15:04:19;;;;;;;4.40;0.60;;;14.30;99.90;;;;;;4954848;29;20414;-75
2021/10/21 15:22:58;;;;;;;3.30;0.53;;;14.40;99.90;;;;;;4955571;28;20495;-76
2021/10/21 15:25:24;;;;;;;2.53;0.70;;;14.30;99.90;;;;;;4955365;28;20475;-75
2021/10/21 15:27:49;;;;;;;0.60;0.50;;;14.30;99.90;;;;;;4955414;29;20416;-75
2021/10/21 15:30:15;;;;;;;3.07;0.73;;;14.20;99.90;;;;;;4954528;29;20181;-75
2021/10/21 15:32:41;;;;;;;1.70;0.77;;;14.20;99.90;;;;;;4954645;28;20213;-75
2021/10/21 15:35:08;;;;;;;1.93;0.50;;;14.10;99.90;;;;;;4955580;29;20219;-76
2021/10/21 15:37:36;;;;;;;2.57;1.03;;;14.10;99.90;;;;;;4955339;28;20482;-75
2021/10/21 15:40:03;;;;;;;3.90;0.97;;;14.00;99.90;;;;;;4955402;28;20420;-76
2021/10/21 15:42:32;;;;;;;2.73;0.70;;;13.90;99.90;;;;;;4955126;28;20440;-75
2021/10/21 16:14:10;;;;;;;1.40;0.60;;;13.40;99.90;;;;;;4954577;29;20474;-75
2021/10/21 16:16:35;;;;;;;3.10;0.77;;;13.40;99.90;;;;;;4954152;28;20444;-74
2021/10/21 16:19:01;;;;;;;6.80;1.23;;;13.30;99.90;;;;;;4954238;29;20448;-76
2021/10/21 16:21:29;;;;;;;2.93;0.60;;;13.20;99.90;;;;;;4954643;28;20199;-75
2021/10/21 16:24:01;;;;;;;0.60;0.50;;;13.20;99.90;;;;;;4954366;28;20186;-75
2021/10/21 16:28:57;;;;;;;1.23;0.90;;;13.00;99.90;;;;;;4954437;29;20420;-74
2021/10/21 16:31:24;;;;;;;2.37;0.87;;;13.00;99.90;;;;;;4954194;28;20212;-75
2021/10/21 16:33:53;;;;;;;3.23;1.07;;;13.00;99.90;;;;;;4954141;28;20463;-75
2021/10/21 16:36:20;;;;;;;1.70;0.87;;;13.00;99.90;;;;;;4954216;29;20495;-75
2021/10/21 16:38:45;;;;;;;1.07;0.50;;;13.00;99.90;;;;;;4953994;28;20513;-75
2021/10/21 16:41:11;;;;;;;5.17;1.10;;;12.90;99.90;;;;;;4954110;28;20495;-75
2021/10/21 16:43:36;;;;;;;1.60;0.80;;;12.80;99.90;;;;;;4953305;28;20190;-75
2021/10/21 16:46:02;;;;;;;4.60;0.70;;;12.80;99.90;;;;;;4953809;29;20176;-75
2021/10/21 16:48:27;;;;;;;6.43;1.30;;;12.80;99.90;;;;;;4953612;29;20638;-76
2021/10/21 16:50:53;;;;;;;6.67;1.23;;;12.80;99.90;;;;;;4951343;28;20212;-75
2021/10/21 16:53:18;;;;;;;7.40;1.30;;;12.80;99.90;;;;;;4952986;28;20315;-75
2021/10/21 16:55:44;;;;;;;3.17;1.00;;;12.90;99.90;;;;;;4951759;29;20213;-75
2021/10/21 16:58:09;;;;;;;2.30;0.80;;;12.90;99.90;;;;;;4953065;28;20232;-75
2021/10/21 17:00:35;;;;;;;2.90;0.97;;;12.90;99.90;;;;;;4953083;29;20975;-74
2021/10/21 17:03:00;;;;;;;2.50;1.03;;;12.90;99.90;;;;;;4941264;29;20225;-75
2021/10/21 17:05:26;;;;;;;5.33;1.10;;;12.80;99.90;;;;;;4952937;29;20243;-75
2021/10/21 17:07:51;;;;;;;4.23;1.03;;;12.80;99.90;;;;;;4953068;28;20236;-75
2021/10/21 17:10:17;;;;;;;2.63;1.10;;;12.90;99.90;;;;;;4951712;29;20587;-76
2021/10/21 17:12:43;;;;;;;2.10;0.80;;;12.80;99.90;;;;;;4945982;29;21962;-75
2021/10/21 17:15:09;;;;;;;2.83;0.77;;;12.80;99.90;;;;;;4948491;29;20292;-76
2021/10/21 17:17:34;;;;;;;4.83;0.90;;;12.90;99.90;;;;;;4952845;28;20458;-75
2021/10/21 17:20:00;;;;;;;1.93;0.73;;;12.90;99.90;;;;;;4953146;29;20282;-75
2021/10/21 17:22:26;;;;;;;2.87;1.33;;;13.00;99.90;;;;;;4952781;28;20208;-75
2021/10/21 17:24:52;;;;;;;4.93;0.83;;;13.00;99.90;;;;;;4941158;28;20227;-76
2021/10/21 17:27:18;;;;;;;6.30;0.80;;;13.00;99.90;;;;;;4952792;28;20208;-76
2021/10/21 17:29:45;;;;;;;2.50;0.80;;;13.00;99.90;;;;;;4953033;28;20996;-75
2021/10/21 17:32:11;;;;;;;5.23;1.07;;;13.00;99.90;;;;;;4951472;29;20220;-75
2021/10/21 17:34:36;;;;;;;3.67;0.67;;;13.00;99.90;;;;;;4944183;28;20481;-75
2021/10/21 17:37:02;;;;;;;3.87;0.70;;;13.00;99.90;;;;;;4949601;29;20228;-75
2021/10/21 17:39:28;;;;;;;2.73;0.90;;;13.10;99.90;;;;;;4952774;28;20381;-76
2021/10/21 17:41:54;;;;;;;7.00;0.90;;;13.10;99.90;;;;;;4952804;29;20552;-75
2021/10/21 17:44:21;;;;;;;4.43;1.20;;;13.10;99.90;;;;;;4952772;28;20644;-76
2021/10/21 17:46:47;;;;;;;3.50;0.80;;;13.10;99.90;;;;;;4952271;29;20263;-75
2021/10/21 17:49:12;;;;;;;2.50;1.10;;;13.10;99.90;;;;;;4951439;29;20981;-75
2021/10/21 17:51:39;;;;;;;5.83;0.70;;;13.10;99.90;;;;;;4952942;28;20298;-74
2021/10/21 17:54:06;;;;;;;3.90;1.20;;;13.10;99.90;;;;;;4952220;28;20851;-75
2021/10/21 17:56:31;;;;;;;5.73;0.90;;;13.10;99.90;;;;;;4948013;28;20575;-76
2021/10/21 17:58:57;;;;;;;4.93;1.03;;;13.10;99.90;;;;;;4952489;28;20563;-76
2021/10/21 18:01:22;;;;;;;2.13;0.70;;;13.10;99.90;;;;;;4956284;29;20221;-75
2021/10/21 18:03:48;;;;;;;3.20;0.70;;;13.00;99.90;;;;;;4956213;28;20230;-75
2021/10/21 18:06:13;;;;;;;2.60;0.90;;;13.00;99.90;;;;;;4956490;29;20213;-74
2021/10/21 18:08:39;;;;;;;2.93;0.90;;;12.90;99.90;;;;;;4944291;29;20242;-75